Time;durP1;ratioP1;P1;durP2;ratioP2;P2;SDS_P1;SDS_P2;PMS_P1;PMS_P2;Temp;Humidity;BMP_temperature;BMP_pressure;BME280_temperature;BME280_humidity;BME280_pressure;Samples;Min_cycle;Max_cycle;Signal;HPM_P1;HPM_P2
2023/12/28 00:01:40;;;;;;;;;;;;;;;-144.99;100.00;52541.84;5136357;27;19980;-65
2023/12/28 00:04:08;;;;;;;;;;;;;;;-144.99;100.00;52647.84;5138924;27;19996;-70
2023/12/28 00:06:34;;;;;;;;;;;;;;;-144.99;100.00;52603.00;5140725;27;19962;-72
2023/12/28 00:09:01;;;;;;;;;;;;;;;-144.99;100.00;52623.38;5137541;27;19966;-72
2023/12/28 00:11:27;;;;;;;;;;;;;;;-144.99;100.00;52574.47;5146254;27;19923;-72
2023/12/28 00:13:54;;;;;;;;;;;;;;;-144.99;100.00;52586.69;4813076;27;9999952;-73
2023/12/28 00:16:20;;;;;;;;;;;;;;;-144.99;100.00;52615.25;5152265;27;19931;-73
2023/12/28 00:18:47;;;;;;;;;;;;;;;-144.99;100.00;52594.84;5130555;27;20030;-72
2023/12/28 00:21:15;;;;;;;;;;;;;;;-144.99;100.00;52594.84;5135054;27;19931;-69
2023/12/28 00:23:40;;;;;;;;;;;;;;;-144.99;100.00;52598.94;5143476;27;19931;-63
2023/12/28 00:26:07;;;;;;;;;;;;;;;-144.99;100.00;52603.00;5139024;27;19966;-63
2023/12/28 00:28:33;;;;;;;;;;;;;;;-144.99;100.00;52611.16;5135797;27;20369;-63
2023/12/28 00:31:00;;;;;;;;;;;;;;;-144.99;100.00;52627.47;5139396;27;19978;-64
2023/12/28 00:33:26;;;;;;;;;;;;;;;-144.99;100.00;52631.53;5137636;27;20039;-63
2023/12/28 00:35:53;;;;;;;;;;;;;;;-144.99;100.00;52615.25;5139796;27;20370;-64
2023/12/28 00:38:20;;;;;;;;;;;;;;;-144.99;100.00;52603.00;5144217;27;19927;-64
2023/12/28 00:40:47;;;;;;;;;;;;;;;-144.99;100.00;52643.78;5135122;27;19934;-64
2023/12/28 00:43:13;;;;;;;;;;;;;;;-144.99;100.00;52631.53;5139323;27;19927;-63
2023/12/28 00:45:40;;;;;;;;;;;;;;;-144.99;100.00;52578.53;5141652;27;19962;-64
2023/12/28 00:48:07;;;;;;;;;;;;;;;-144.99;100.00;52594.84;5141322;27;20304;-64
2023/12/28 00:50:33;;;;;;;;;;;;;;;-144.99;100.00;52586.69;5141032;27;19966;-63
2023/12/28 00:53:00;;;;;;;;;;;;;;;-144.99;100.00;52607.09;5142152;27;19955;-63
2023/12/28 00:55:28;;;;;;;;;;;;;;;-144.99;100.00;52600.97;5132571;27;19927;-62
2023/12/28 00:57:54;;;;;;;;;;;;;;;-144.99;100.00;52603.00;5143200;27;20076;-63
2023/12/28 01:00:21;;;;;;;;;;;;;;;-144.99;100.00;52598.94;5133409;27;19999;-63
2023/12/28 01:02:47;;;;;;;;;;;;;;;-144.99;100.00;52598.94;5140637;27;19923;-63
2023/12/28 01:05:13;;;;;;;;;;;;;;;-144.99;100.00;52611.16;5144292;27;19923;-63
2023/12/28 01:07:39;;;;;;;;;;;;;;;-144.99;100.00;52627.47;5140423;27;19965;-63
2023/12/28 01:10:06;;;;;;;;;;;;;;;-144.99;100.00;52605.03;5142886;27;19929;-63
2023/12/28 01:12:34;;;;;;;;;;;;;;;-144.99;100.00;52584.66;5131014;27;20160;-63
2023/12/28 01:15:01;;;;;;;;;;;;;;;-144.99;100.00;52623.38;5132457;27;19927;-63
2023/12/28 01:17:27;;;;;;;;;;;;;;;-144.99;100.00;52637.66;5133782;27;19923;-62
2023/12/28 01:19:54;;;;;;;;;;;;;;;-144.99;100.00;52582.63;5135892;27;19966;-63
2023/12/28 01:22:20;;;;;;;;;;;;;;;-144.99;100.00;52615.25;5138189;27;19967;-63
2023/12/28 01:24:49;;;;;;;;;;;;;;;-144.99;100.00;52594.84;5137041;27;19927;-63
2023/12/28 01:27:14;;;;;;;;;;;;;;;-144.99;100.00;52588.75;5140238;27;20435;-68
2023/12/28 01:29:42;;;;;;;;;;;;;;;-144.99;100.00;52611.16;5139128;27;19927;-67
2023/12/28 01:32:09;;;;;;;;;;;;;;;-144.99;100.00;52631.53;5140932;27;20075;-67
2023/12/28 01:34:35;;;;;;;;;;;;;;;-144.99;100.00;52651.94;5144685;27;19944;-67
2023/12/28 01:37:01;;;;;;;;;;;;;;;-144.99;100.00;52588.75;5143516;27;20296;-68
2023/12/28 01:39:28;;;;;;;;;;;;;;;-144.99;100.00;52590.78;5148685;27;19923;-63
2023/12/28 01:41:55;;;;;;;;;;;;;;;-144.99;100.00;52609.13;5147839;27;19973;-63
2023/12/28 01:44:21;;;;;;;;;;;;;;;-144.99;100.00;52598.94;5133827;27;20529;-63
2023/12/28 01:46:49;;;;;;;;;;;;;;;-144.99;100.00;52600.97;5134006;27;20393;-62
2023/12/28 01:49:16;;;;;;;;;;;;;;;-144.99;100.00;52611.16;5144975;27;19970;-62
2023/12/28 01:51:43;;;;;;;;;;;;;;;-144.99;100.00;52598.94;5144532;27;20385;-62
2023/12/28 01:54:10;;;;;;;;;;;;;;;-144.99;100.00;52603.00;5141650;27;20018;-62
2023/12/28 01:56:37;;;;;;;;;;;;;;;-144.99;100.00;52611.16;5138643;27;19951;-62
2023/12/28 01:59:03;;;;;;;;;;;;;;;-144.99;100.00;52594.84;5141941;27;20227;-63
2023/12/28 02:01:29;;;;;;;;;;;;;;;-144.99;100.00;52590.78;5142454;27;20022;-70
2023/12/28 02:03:58;;;;;;;;;;;;;;;-144.99;100.00;52627.47;5153255;27;20029;-69
2023/12/28 02:06:24;;;;;;;;;;;;;;;-144.99;100.00;52611.16;5144265;27;20743;-70
2023/12/28 02:08:51;;;;;;;;;;;;;;;-144.99;100.00;52623.38;5147568;27;19927;-68
2023/12/28 02:11:19;;;;;;;;;;;;;;;-144.99;100.00;52578.53;5137051;27;20339;-69
2023/12/28 02:13:45;;;;;;;;;;;;;;;-144.99;100.00;52631.53;5139750;27;20027;-69
2023/12/28 02:16:14;;;;;;;;;;;;;;;-144.99;100.00;52586.69;5146318;27;19931;-69
2023/12/28 02:18:44;;;;;;;;;;;;;;;-144.99;100.00;52578.53;5140469;27;19974;-69
2023/12/28 02:21:13;;;;;;;;;;;;;;;-144.99;100.00;52603.00;5133516;27;20015;-69
2023/12/28 02:23:39;;;;;;;;;;;;;;;-144.99;100.00;52584.66;5133218;27;20097;-75
2023/12/28 02:26:07;;;;;;;;;;;;;;;-144.99;100.00;52600.97;5134821;27;19980;-67
2023/12/28 02:28:33;;;;;;;;;;;;;;;-144.99;100.00;52647.84;5142203;27;19930;-67
2023/12/28 02:31:00;;;;;;;;;;;;;;;-144.99;100.00;52615.25;5145578;27;20455;-68
2023/12/28 02:33:30;;;;;;;;;;;;;;;-144.99;100.00;52619.31;5139536;27;19988;-68
2023/12/28 02:35:58;;;;;;;;;;;;;;;-144.99;100.00;52615.25;5134831;27;20411;-67
2023/12/28 02:38:26;;;;;;;;;;;;;;;-144.99;100.00;52607.09;5138890;27;19958;-67
2023/12/28 02:40:53;;;;;;;;;;;;;;;-144.99;100.00;52647.84;5145609;27;19942;-68
2023/12/28 02:43:21;;;;;;;;;;;;;;;-144.99;100.00;52568.34;5136550;27;19927;-68
2023/12/28 02:45:47;;;;;;;;;;;;;;;-144.99;100.00;52594.84;5140847;27;20022;-67
2023/12/28 02:48:14;;;;;;;;;;;;;;;-144.99;100.00;52598.94;5137406;27;19962;-68
2023/12/28 02:50:40;;;;;;;;;;;;;;;-144.99;100.00;52611.16;5138123;27;20377;-67
2023/12/28 02:53:07;;;;;;;;;;;;;;;-144.99;100.00;52600.97;5143520;27;20022;-70
2023/12/28 02:55:33;;;;;;;;;;;;;;;-144.99;100.00;52586.69;5139546;27;20025;-67
2023/12/28 02:58:00;;;;;;;;;;;;;;;-144.99;100.00;52645.81;5151980;27;20328;-67
2023/12/28 03:00:28;;;;;;;;;;;;;;;-144.99;100.00;52611.16;5146172;27;20443;-67
2023/12/28 03:02:54;;;;;;;;;;;;;;;-144.99;100.00;52550.00;5150254;27;20400;-66
2023/12/28 03:05:21;;;;;;;;;;;;;;;-144.99;100.00;52647.84;5140108;27;19983;-67
2023/12/28 03:07:47;;;;;;;;;;;;;;;-144.99;100.00;52586.69;5138067;27;19923;-67
2023/12/28 03:10:14;;;;;;;;;;;;;;;-144.99;100.00;52594.84;5140623;27;20015;-67
2023/12/28 03:12:40;;;;;;;;;;;;;;;-144.99;100.00;52639.69;5134692;27;19985;-67
2023/12/28 03:15:07;;;;;;;;;;;;;;;-144.99;100.00;52570.38;5140935;27;19951;-68
2023/12/28 03:17:36;;;;;;;;;;;;;;;-144.99;100.00;52590.78;5139311;27;19935;-68
2023/12/28 03:20:03;;;;;;;;;;;;;;;-144.99;100.00;52651.94;5142996;27;20230;-67
2023/12/28 03:22:30;;;;;;;;;;;;;;;-144.99;100.00;52611.16;5133664;27;20022;-67
2023/12/28 03:24:56;;;;;;;;;;;;;;;-144.99;100.00;52578.53;5141898;27;19933;-67
2023/12/28 03:27:23;;;;;;;;;;;;;;;-144.99;100.00;52607.09;5142219;27;19957;-69
2023/12/28 03:29:49;;;;;;;;;;;;;;;-144.99;100.00;52592.81;5135309;27;20310;-68
2023/12/28 03:32:16;;;;;;;;;;;;;;;-144.99;100.00;52578.53;5129435;27;19927;-68
2023/12/28 03:34:44;;;;;;;;;;;;;;;-144.99;100.00;52582.63;5131340;27;20330;-68
2023/12/28 03:37:11;;;;;;;;;;;;;;;-144.99;100.00;52598.94;5143885;27;19926;-67
2023/12/28 03:39:37;;;;;;;;;;;;;;;-144.99;100.00;52623.38;5138766;27;19923;-68
2023/12/28 03:42:04;;;;;;;;;;;;;;;-144.99;100.00;52621.34;5142698;27;20066;-67
2023/12/28 03:44:30;;;;;;;;;;;;;;;-144.99;100.00;52635.63;5128688;27;20288;-67
2023/12/28 03:46:57;;;;;;;;;;;;;;;-144.99;100.00;52631.53;5145469;27;20316;-75
2023/12/28 03:49:24;;;;;;;;;;;;;;;-144.99;100.00;52590.78;5139411;27;19931;-62
2023/12/28 03:51:51;;;;;;;;;;;;;;;-144.99;100.00;52574.47;5137085;27;19924;-63
2023/12/28 03:54:18;;;;;;;;;;;;;;;-144.99;100.00;52603.00;5136299;27;20010;-60
2023/12/28 03:56:45;;;;;;;;;;;;;;;-144.99;100.00;52596.88;5137148;22;19924;-77
2023/12/28 03:59:11;;;;;;;;;;;;;;;-144.99;100.00;52615.25;5130351;27;20018;-78
2023/12/28 04:01:38;;;;;;;;;;;;;;;-144.99;100.00;52578.53;5123167;27;19966;-77
2023/12/28 04:04:04;;;;;;;;;;;;;;;-144.99;100.00;52633.59;5132001;27;19958;-78
2023/12/28 04:06:31;;;;;;;;;;;;;;;-144.99;100.00;52607.09;5129851;27;19967;-77
2023/12/28 04:08:58;;;;;;;;;;;;;;;-144.99;100.00;52603.00;5110588;28;19951;-78
2023/12/28 04:11:25;;;;;;;;;;;;;;;-144.99;100.00;52594.84;5113239;27;20018;-78
2023/12/28 04:13:51;;;;;;;;;;;;;;;-144.99;100.00;52615.25;5108270;27;20037;-78
2023/12/28 04:16:18;;;;;;;;;;;;;;;-144.99;100.00;52611.16;5108165;28;19932;-79
2023/12/28 04:18:44;;;;;;;;;;;;;;;-144.99;100.00;52635.63;5111213;27;20363;-78
2023/12/28 04:21:11;;;;;;;;;;;;;;;-144.99;100.00;52603.00;5113338;27;19924;-79
2023/12/28 04:23:38;;;;;;;;;;;;;;;-144.99;100.00;52627.47;5112694;27;19977;-77
2023/12/28 04:26:05;;;;;;;;;;;;;;;-144.99;100.00;52598.94;5135428;27;20272;-78
2023/12/28 04:28:34;;;;;;;;;;;;;;;-144.99;100.00;52651.94;5122605;28;20387;-76
2023/12/28 04:31:02;;;;;;;;;;;;;;;-144.99;100.00;52607.09;5115791;27;19935;-77
2023/12/28 04:33:29;;;;;;;;;;;;;;;-144.99;100.00;52576.50;5122108;27;19993;-78
2023/12/28 04:35:55;;;;;;;;;;;;;;;-144.99;100.00;52609.13;5110266;28;19967;-77
2023/12/28 04:38:21;;;;;;;;;;;;;;;-144.99;100.00;52578.53;5111839;27;20233;-75
2023/12/28 04:40:48;;;;;;;;;;;;;;;-144.99;100.00;52590.78;5107991;28;19924;-76
2023/12/28 04:43:16;;;;;;;;;;;;;;;-144.99;100.00;52611.16;5087766;28;19924;-77
2023/12/28 04:45:42;;;;;;;;;;;;;;;-144.99;100.00;52611.16;5112822;28;20303;-75
2023/12/28 04:48:09;;;;;;;;;;;;;;;-144.99;100.00;52609.13;5115222;27;20069;-76
2023/12/28 04:50:35;;;;;;;;;;;;;;;-144.99;100.00;52619.31;5110415;28;20441;-73
2023/12/28 04:53:02;;;;;;;;;;;;;;;-144.99;100.00;52623.38;5126293;28;19967;-74
2023/12/28 04:55:28;;;;;;;;;;;;;;;-144.99;100.00;52619.31;5111678;28;20329;-77
2023/12/28 04:57:54;;;;;;;;;;;;;;;-144.99;100.00;52603.00;5136411;28;19955;-75
2023/12/28 05:00:22;;;;;;;;;;;;;;;-144.99;100.00;52627.47;5134376;28;20423;-76
2023/12/28 05:02:48;;;;;;;;;;;;;;;-144.99;100.00;52603.00;5128529;28;20189;-77
2023/12/28 05:05:15;;;;;;;;;;;;;;;-144.99;100.00;52578.53;5128127;27;20054;-75
2023/12/28 05:07:41;;;;;;;;;;;;;;;-144.99;100.00;52582.63;5117858;27;20407;-75
2023/12/28 05:10:08;;;;;;;;;;;;;;;-144.99;100.00;52647.84;5110833;28;19924;-80
2023/12/28 05:12:35;;;;;;;;;;;;;;;-144.99;100.00;52627.47;5125050;28;19931;-74
2023/12/28 05:15:01;;;;;;;;;;;;;;;-144.99;100.00;52582.63;5116950;28;19928;-75
2023/12/28 05:17:29;;;;;;;;;;;;;;;-144.99;100.00;52623.38;5112355;28;19927;-74
2023/12/28 05:19:55;;;;;;;;;;;;;;;-144.99;100.00;52619.31;5111630;28;19947;-75
2023/12/28 05:22:22;;;;;;;;;;;;;;;-144.99;100.00;52598.94;5121161;27;20156;-74
2023/12/28 05:24:48;;;;;;;;;;;;;;;-144.99;100.00;52586.69;5124555;28;20443;-74
2023/12/28 05:27:15;;;;;;;;;;;;;;;-144.99;100.00;52550.00;5112438;28;20015;-74
2023/12/28 05:29:42;;;;;;;;;;;;;;;-144.99;100.00;52590.78;5113005;28;19927;-84
2023/12/28 05:32:08;;;;;;;;;;;;;;;-144.99;100.00;52625.44;5144204;27;19948;-78
2023/12/28 05:34:36;;;;;;;;;;;;;;;-144.99;100.00;52586.69;5111446;28;19946;-79
2023/12/28 05:37:02;;;;;;;;;;;;;;;-144.99;100.00;52598.94;5109977;28;19934;-72
2023/12/28 05:39:29;;;;;;;;;;;;;;;-144.99;100.00;52619.31;5108663;28;20019;-73
2023/12/28 05:41:55;;;;;;;;;;;;;;;-144.99;100.00;52623.38;5116052;27;20023;-77
2023/12/28 05:44:22;;;;;;;;;;;;;;;-144.99;100.00;52633.59;5108137;28;19930;-75
2023/12/28 05:46:48;;;;;;;;;;;;;;;-144.99;100.00;52603.00;5113179;28;20003;-75
2023/12/28 05:49:14;;;;;;;;;;;;;;;-144.99;100.00;52580.59;5111155;27;20307;-75
2023/12/28 05:51:43;;;;;;;;;;;;;;;-144.99;100.00;52607.09;5121713;27;20014;-75
2023/12/28 05:54:09;;;;;;;;;;;;;;;-144.99;100.00;52615.25;5119368;27;20030;-74
2023/12/28 05:56:36;;;;;;;;;;;;;;;-144.99;100.00;52582.63;5112027;28;19931;-78
2023/12/28 05:59:02;;;;;;;;;;;;;;;-144.99;100.00;52619.31;5112540;27;20310;-77
2023/12/28 06:01:28;;;;;;;;;;;;;;;-144.99;100.00;52611.16;5118994;27;20026;-76
2023/12/28 06:03:55;;;;;;;;;;;;;;;-144.99;100.00;52607.09;5120559;27;19970;-77
2023/12/28 06:06:21;;;;;;;;;;;;;;;-144.99;100.00;52594.84;5114293;27;19924;-77
2023/12/28 06:08:49;;;;;;;;;;;;;;;-144.99;100.00;52594.84;5117360;27;20341;-77
2023/12/28 06:11:15;;;;;;;;;;;;;;;-144.99;100.00;52605.03;5117771;27;19932;-76
2023/12/28 06:13:42;;;;;;;;;;;;;;;-144.99;100.00;52609.13;5113273;27;20022;-75
2023/12/28 06:16:10;;;;;;;;;;;;;;;-144.99;100.00;52633.59;5131828;27;20387;-76
2023/12/28 06:18:36;;;;;;;;;;;;;;;-144.99;100.00;52578.53;5125651;27;19924;-76
2023/12/28 06:21:05;;;;;;;;;;;;;;;-144.99;100.00;52611.16;5120903;27;19923;-75
2023/12/28 06:23:32;;;;;;;;;;;;;;;-144.99;100.00;52635.63;5116435;27;20331;-76
2023/12/28 06:25:59;;;;;;;;;;;;;;;-144.99;100.00;52603.00;5122840;27;19928;-76
2023/12/28 06:28:26;;;;;;;;;;;;;;;-144.99;100.00;52607.09;5131467;27;20031;-76
2023/12/28 06:30:52;;;;;;;;;;;;;;;-144.99;100.00;52603.00;5124225;27;19928;-75
2023/12/28 06:33:19;;;;;;;;;;;;;;;-144.99;100.00;52621.34;5119743;27;19947;-77
2023/12/28 06:35:45;;;;;;;;;;;;;;;-144.99;100.00;52558.16;5114164;28;19991;-77
2023/12/28 06:38:12;;;;;;;;;;;;;;;-144.99;100.00;52584.66;5113358;28;19927;-76
2023/12/28 06:40:38;;;;;;;;;;;;;;;-144.99;100.00;52611.16;5126709;28;19923;-79
2023/12/28 06:43:06;;;;;;;;;;;;;;;-144.99;100.00;52609.13;5128218;27;19950;-76
2023/12/28 06:45:33;;;;;;;;;;;;;;;-144.99;100.00;52623.38;5112209;28;19924;-78
2023/12/28 06:47:59;;;;;;;;;;;;;;;-144.99;100.00;52627.47;5112626;28;20011;-78
2023/12/28 06:50:25;;;;;;;;;;;;;;;-144.99;100.00;52578.53;4758959;27;10000325;-78
2023/12/28 06:52:52;;;;;;;;;;;;;;;-144.99;100.00;52635.63;5110324;27;20021;-79
2023/12/28 06:55:18;;;;;;;;;;;;;;;-144.99;100.00;52605.03;5117294;27;20403;-80
2023/12/28 06:57:45;;;;;;;;;;;;;;;-144.99;100.00;52611.16;5107136;28;20424;-79
2023/12/28 07:00:13;;;;;;;;;;;;;;;-144.99;100.00;52619.31;5109446;27;20443;-78
2023/12/28 07:02:40;;;;;;;;;;;;;;;-144.99;100.00;52615.25;5109468;27;19970;-79
2023/12/28 07:05:07;;;;;;;;;;;;;;;-144.99;100.00;52605.03;5114174;27;19928;-80
2023/12/28 07:07:34;;;;;;;;;;;;;;;-144.99;100.00;52627.47;5114245;27;20387;-79
2023/12/28 07:10:00;;;;;;;;;;;;;;;-144.99;100.00;52603.00;5111926;27;20019;-79
2023/12/28 07:12:27;;;;;;;;;;;;;;;-144.99;100.00;52625.44;5110769;27;20388;-75
2023/12/28 07:14:53;;;;;;;;;;;;;;;-144.99;100.00;52594.84;5115517;27;20000;-79
2023/12/28 07:17:21;;;;;;;;;;;;;;;-144.99;100.00;52588.75;5132649;27;19928;-78
2023/12/28 07:19:47;;;;;;;;;;;;;;;-144.99;100.00;52596.88;5106526;28;20115;-77
2023/12/28 07:22:14;;;;;;;;;;;;;;;-144.99;100.00;52656.00;5106483;28;19990;-75
2023/12/28 07:24:40;;;;;;;;;;;;;;;-144.99;100.00;52594.84;5107959;27;20037;-77
2023/12/28 07:27:07;;;;;;;;;;;;;;;-144.99;100.00;52588.75;5118828;27;19927;-79
2023/12/28 07:29:33;;;;;;;;;;;;;;;-144.99;100.00;52590.78;5106863;27;19931;-75
2023/12/28 07:32:00;;;;;;;;;;;;;;;-144.99;100.00;52631.53;5113577;27;20379;-79
2023/12/28 07:34:28;;;;;;;;;;;;;;;-144.99;100.00;52623.38;5110163;27;19924;-79
2023/12/28 07:36:54;;;;;;;;;;;;;;;-144.99;100.00;52558.16;5107185;28;19923;-79
2023/12/28 07:39:21;;;;;;;;;;;;;;;-144.99;100.00;52603.00;5107756;27;20459;-76
2023/12/28 07:41:47;;;;;;;;;;;;;;;-144.99;100.00;52570.38;5115040;27;20046;-79
2023/12/28 07:44:13;;;;;;;;;;;;;;;-144.99;100.00;52631.53;5105922;28;19932;-78
2023/12/28 07:46:40;;;;;;;;;;;;;;;-144.99;100.00;52566.31;5108308;28;20369;-81
2023/12/28 07:49:06;;;;;;;;;;;;;;;-144.99;100.00;52607.09;5126855;28;19973;-80
2023/12/28 07:51:34;;;;;;;;;;;;;;;-144.99;100.00;52582.63;5113551;27;19963;-78
2023/12/28 07:54:00;;;;;;;;;;;;;;;-144.99;100.00;52621.34;5105016;27;19957;-78
2023/12/28 07:56:27;;;;;;;;;;;;;;;-144.99;100.00;52578.53;5106277;27;19963;-77
2023/12/28 07:58:53;;;;;;;;;;;;;;;-144.99;100.00;52598.94;5106550;27;20413;-80
2023/12/28 08:01:20;;;;;;;;;;;;;;;-144.99;100.00;52588.75;5120618;27;20336;-76
2023/12/28 08:03:46;;;;;;;;;;;;;;;-144.99;100.00;52562.25;5106926;27;20545;-79
2023/12/28 08:06:13;;;;;;;;;;;;;;;-144.99;100.00;52607.09;5115460;27;19974;-78
2023/12/28 08:08:41;;;;;;;;;;;;;;;-144.99;100.00;52603.00;5122178;27;20536;-78
2023/12/28 08:11:07;;;;;;;;;;;;;;;-144.99;100.00;52574.47;5116336;27;20129;-80
2023/12/28 08:13:34;;;;;;;;;;;;;;;-144.99;100.00;52574.47;5105593;27;19991;-77
2023/12/28 08:16:00;;;;;;;;;;;;;;;-144.99;100.00;52615.25;5112368;27;19923;-78
2023/12/28 08:18:27;;;;;;;;;;;;;;;-144.99;100.00;52603.00;5116099;27;19924;-77
2023/12/28 08:20:54;;;;;;;;;;;;;;;-144.99;100.00;52603.00;5114320;27;20387;-78
2023/12/28 08:23:20;;;;;;;;;;;;;;;-144.99;100.00;52623.38;5112905;27;20383;-79
2023/12/28 08:25:48;;;;;;;;;;;;;;;-144.99;100.00;52611.16;5118985;27;20023;-79
2023/12/28 08:28:14;;;;;;;;;;;;;;;-144.99;100.00;52588.75;5110989;27;20022;-79
2023/12/28 08:30:41;;;;;;;;;;;;;;;-144.99;100.00;52564.28;5111240;27;20037;-80
2023/12/28 08:33:07;;;;;;;;;;;;;;;-144.99;100.00;52554.09;5108855;28;20036;-77
2023/12/28 08:35:34;;;;;;;;;;;;;;;-144.99;100.00;52590.78;5117417;27;20217;-76
2023/12/28 08:38:00;;;;;;;;;;;;;;;-144.99;100.00;52623.38;5118447;27;20383;-80
2023/12/28 08:40:26;;;;;;;;;;;;;;;-144.99;100.00;52619.31;5111774;28;20082;-79
2023/12/28 08:42:54;;;;;;;;;;;;;;;-144.99;100.00;52607.09;5115691;27;20006;-78
2023/12/28 08:45:21;;;;;;;;;;;;;;;-144.99;100.00;52570.38;5110908;27;20008;-79
2023/12/28 08:47:47;;;;;;;;;;;;;;;-144.99;100.00;52562.25;5107475;28;19934;-77
2023/12/28 08:50:14;;;;;;;;;;;;;;;-144.99;100.00;52603.00;5108646;27;19985;-78
2023/12/28 08:52:40;;;;;;;;;;;;;;;-144.99;100.00;52598.94;5133671;27;19962;-83
2023/12/28 08:55:07;;;;;;;;;;;;;;;-144.99;100.00;52588.75;5114785;28;19993;-77
2023/12/28 08:57:33;;;;;;;;;;;;;;;-144.99;100.00;52627.47;5107724;28;19988;-77
2023/12/28 09:00:02;;;;;;;;;;;;;;;-144.99;100.00;52570.38;5108909;27;20804;-79
2023/12/28 09:02:29;;;;;;;;;;;;;;;-144.99;100.00;52623.38;5119689;27;19943;-76
2023/12/28 09:04:55;;;;;;;;;;;;;;;-144.99;99.74;52590.78;5114994;27;19928;-78
2023/12/28 09:07:22;;;;;;;;;;;;;;;-144.99;99.43;52598.94;5105176;28;19955;-79
2023/12/28 09:09:48;;;;;;;;;;;;;;;-144.99;98.94;52554.09;5117542;28;20114;-80
2023/12/28 09:12:15;;;;;;;;;;;;;;;-144.99;98.86;52611.16;5114253;27;20301;-77
2023/12/28 09:14:41;;;;;;;;;;;;;;;-144.99;98.27;52574.47;5107851;28;20431;-77
2023/12/28 09:17:09;;;;;;;;;;;;;;;-144.99;97.74;52543.91;5114383;28;19928;-77
2023/12/28 09:19:35;;;;;;;;;;;;;;;-144.99;97.26;52570.38;5109877;27;20262;-78
2023/12/28 09:22:03;;;;;;;;;;;;;;;-144.99;96.87;52550.00;5112097;28;19991;-78
2023/12/28 09:24:29;;;;;;;;;;;;;;;-144.99;96.84;52590.78;5124343;27;19912;-80
2023/12/28 09:26:56;;;;;;;;;;;;;;;-144.99;96.55;52568.34;5123608;27;20024;-78
2023/12/28 09:29:22;;;;;;;;;;;;;;;-144.99;96.21;52582.63;5116766;27;20331;-77
2023/12/28 09:31:48;;;;;;;;;;;;;;;-144.99;95.81;52562.25;5117753;27;20620;-77
2023/12/28 09:34:16;;;;;;;;;;;;;;;-144.99;95.51;52578.53;5120138;27;20018;-78
2023/12/28 09:36:43;;;;;;;;;;;;;;;-144.99;95.20;52570.38;5118660;27;19923;-77
2023/12/28 09:39:09;;;;;;;;;;;;;;;-144.99;95.16;52550.00;5115394;27;20005;-77
2023/12/28 09:41:37;;;;;;;;;;;;;;;-144.99;95.55;52582.63;5112522;27;19927;-76
2023/12/28 09:44:08;;;;;;;;;;;;;;;-144.99;95.06;52603.00;5109381;27;20027;-77
2023/12/28 09:46:35;;;;;;;;;;;;;;;-144.99;94.57;52594.84;5116964;27;19991;-76
2023/12/28 09:49:01;;;;;;;;;;;;;;;-144.99;94.73;52611.16;5111371;27;19932;-77
2023/12/28 09:51:29;;;;;;;;;;;;;;;-144.99;94.50;52552.03;5117170;27;19958;-79
2023/12/28 09:53:56;;;;;;;;;;;;;;;-144.99;94.49;52586.69;5112064;27;19928;-78
2023/12/28 09:56:23;;;;;;;;;;;;;;;-144.99;94.07;52541.84;5120403;27;20031;-79
2023/12/28 09:58:51;;;;;;;;;;;;;;;-144.99;93.93;52570.38;5120810;27;19927;-78
2023/12/28 10:01:18;;;;;;;;;;;;;;;-144.99;93.42;52578.53;5115951;27;20017;-78
2023/12/28 10:03:44;;;;;;;;;;;;;;;-144.99;93.68;52558.16;5112195;27;19958;-78
2023/12/28 10:06:11;;;;;;;;;;;;;;;-144.99;93.29;52590.78;5114065;27;19967;-77
2023/12/28 10:08:45;;;;;;;;;;;;;;;-144.99;93.20;52566.31;5109566;27;20457;-78
2023/12/28 10:11:11;;;;;;;;;;;;;;;-144.99;92.25;52603.00;5109002;27;20247;-79
2023/12/28 10:13:38;;;;;;;;;;;;;;;-144.99;92.24;52554.09;5105622;27;20011;-78
2023/12/28 10:16:05;;;;;;;;;;;;;;;-144.99;92.45;52537.78;5112764;27;20004;-79
2023/12/28 10:18:31;;;;;;;;;;;;;;;-144.99;92.12;52545.94;5117533;27;20012;-78
2023/12/28 10:20:58;;;;;;;;;;;;;;;-144.99;92.23;52586.69;5108056;28;19930;-78
2023/12/28 10:23:25;;;;;;;;;;;;;;;-144.99;92.41;52543.91;5110879;27;19938;-79
2023/12/28 10:25:56;;;;;;;;;;;;;;;-144.99;92.40;52574.47;5110158;27;19927;-77
2023/12/28 10:28:23;;;;;;;;;;;;;;;-144.99;92.19;52590.78;5113867;27;20435;-78
2023/12/28 10:30:55;;;;;;;;;;;;;;;-144.99;91.98;52543.91;5119850;27;19927;-78
2023/12/28 10:33:21;;;;;;;;;;;;;;;-144.99;92.10;52582.63;5119561;27;20353;-78
2023/12/28 10:35:50;;;;;;;;;;;;;;;-144.99;92.34;52598.94;5110451;27;20433;-78
2023/12/28 10:38:17;;;;;;;;;;;;;;;-144.99;92.23;52582.63;5109951;28;20048;-78
2023/12/28 10:40:45;;;;;;;;;;;;;;;-144.99;92.21;52562.25;5109261;27;19971;-78
2023/12/28 10:43:16;;;;;;;;;;;;;;;-144.99;92.15;52550.00;5107163;28;19978;-78
2023/12/28 10:45:46;;;;;;;;;;;;;;;-144.99;91.67;52533.69;5107537;27;20014;-78
2023/12/28 10:48:13;;;;;;;;;;;;;;;-144.99;91.69;52537.78;5108502;27;19951;-79
2023/12/28 10:50:40;;;;;;;;;;;;;;;-144.99;91.11;52558.16;5117774;27;20205;-80
2023/12/28 10:53:19;;;;;;;;;;;;;;;-144.99;91.11;52570.38;5106118;27;19927;-80
2023/12/28 10:55:51;;;;;;;;;;;;;;;-144.99;91.60;52582.63;5111453;27;20047;-79
2023/12/28 10:58:23;;;;;;;;;;;;;;;-144.99;91.20;52594.84;5116156;27;20030;-78
2023/12/28 11:00:53;;;;;;;;;;;;;;;-144.99;91.92;52578.53;5126117;27;19918;-81
2023/12/28 11:03:24;;;;;;;;;;;;;;;-144.99;91.39;52592.81;5129090;27;19923;-78
2023/12/28 11:05:52;;;;;;;;;;;;;;;-144.99;92.02;52611.16;5114279;27;19953;-79
2023/12/28 11:08:20;;;;;;;;;;;;;;;-144.99;91.70;52607.09;5108301;27;20015;-80
2023/12/28 11:10:48;;;;;;;;;;;;;;;-144.99;91.60;52564.28;5119971;27;19924;-80
2023/12/28 11:13:16;;;;;;;;;;;;;;;-144.99;91.46;52590.78;5112090;28;19990;-79
2023/12/28 11:15:44;;;;;;;;;;;;;;;-144.99;91.60;52550.00;5118414;27;20406;-78
2023/12/28 11:18:11;;;;;;;;;;;;;;;-144.99;91.52;52566.31;5114321;27;19931;-77
2023/12/28 11:20:38;;;;;;;;;;;;;;;-144.99;91.16;52594.84;5109713;27;20352;-78
2023/12/28 11:23:05;;;;;;;;;;;;;;;-144.99;91.82;52578.53;5114919;27;19924;-77
2023/12/28 11:25:32;;;;;;;;;;;;;;;-144.99;91.70;52609.13;5112458;27;19959;-78
2023/12/28 11:27:59;;;;;;;;;;;;;;;-144.99;91.68;52615.25;5108558;27;19932;-78
2023/12/28 11:30:26;;;;;;;;;;;;;;;-144.99;91.61;52562.25;5109913;27;19966;-78
2023/12/28 11:32:57;;;;;;;;;;;;;;;-144.99;91.54;52588.75;5114353;27;20007;-79
2023/12/28 11:35:23;;;;;;;;;;;;;;;-144.99;90.92;52578.53;5108276;27;19935;-77
2023/12/28 11:37:52;;;;;;;;;;;;;;;-144.99;91.30;52598.94;5107573;27;19978;-78
2023/12/28 11:40:19;;;;;;;;;;;;;;;-144.99;92.07;52560.19;5118598;28;19928;-80
2023/12/28 11:42:51;;;;;;;;;;;;;;;-144.99;91.82;52594.84;5122652;27;19927;-79
2023/12/28 11:45:18;;;;;;;;;;;;;;;-144.99;91.11;52613.19;5103579;27;20297;-75
2023/12/28 11:47:44;;;;;;;;;;;;;;;-144.99;91.67;52603.00;5119141;27;19924;-78
2023/12/28 11:50:13;;;;;;;;;;;;;;;-144.99;91.84;52611.16;5094231;27;19931;-77
2023/12/28 11:52:40;;;;;;;;;;;;;;;-144.99;91.74;52566.31;5111018;27;19935;-78
2023/12/28 11:55:06;;;;;;;;;;;;;;;-144.99;91.39;52615.25;5108466;27;20046;-78
2023/12/28 11:57:33;;;;;;;;;;;;;;;-144.99;91.27;52582.63;5115564;27;19924;-80
2023/12/28 12:00:00;;;;;;;;;;;;;;;-144.99;90.99;52570.38;5111819;27;19928;-78
2023/12/28 12:02:27;;;;;;;;;;;;;;;-144.99;90.97;52617.28;5114733;27;19924;-79
2023/12/28 12:04:54;;;;;;;;;;;;;;;-144.99;90.67;52578.53;5125493;27;20339;-79
2023/12/28 12:07:22;;;;;;;;;;;;;;;-144.99;90.84;52550.00;5110471;27;19938;-78
2023/12/28 12:09:48;;;;;;;;;;;;;;;-144.99;90.96;52562.25;5110444;27;20045;-79
2023/12/28 12:12:17;;;;;;;;;;;;;;;-144.99;90.79;52566.31;5118036;27;19931;-80
2023/12/28 12:14:43;;;;;;;;;;;;;;;-144.99;91.23;52611.16;5127466;27;19934;-80
2023/12/28 12:17:10;;;;;;;;;;;;;;;-144.99;91.65;52550.00;5127738;27;19928;-78
2023/12/28 12:19:36;;;;;;;;;;;;;;;-144.99;92.31;52594.84;5134827;27;19927;-79